Terminal Aerodrome Forecast
Issued by NWS

Home | Current Version | Previous Version | Text Only | Print | Product List | Glossary On
Versions: 1 2 3 4 5 6 7 8 9 10 11 12 13 14 15
000
FTAK31 PAJN 021146
TAFAPG
TAF
PAPG 021146Z 0212/0312 14007KT P6SM -RA FEW010 BKN025 OVC040
      TEMPO 0212/0215 3SM RA BR SCT006 OVC010
     FM021500 14006KT P6SM -SHRA SCT025 OVC040
     FM022100 05005KT P6SM -SHRA BKN025 OVC050
     FM030100 VRB03KT P6SM VCSH SCT025 OVC060
      AMD NOT SKED=

USA.gov is the U.S. government's official web portal to all federal, state and local government web resources and services.